Time;durP1;ratioP1;P1;durP2;ratioP2;P2;SDS_P1;SDS_P2;PMS_P1;PMS_P2;Temp;Humidity;BMP_temperature;BMP_pressure;BME280_temperature;BME280_humidity;BME280_pressure;Samples;Min_cycle;Max_cycle;Signal;HPM_P1;HPM_P2
2023/05/02 00:00:50;;;;;;;14.47;6.03;;;;;;;;;;5081339;28;20496;-82
2023/05/02 00:03:19;;;;;;;11.37;7.10;;;;;;;;;;5063847;28;21059;-84
2023/05/02 00:05:57;;;;;;;12.20;6.97;;;;;;;;;;5045831;28;20518;-83
2023/05/02 00:08:29;;;;;;;11.93;6.90;;;;;;;;;;5079706;28;20913;-84
2023/05/02 00:10:57;;;;;;;13.27;7.43;;;;;;;;;;5062221;28;20422;-84
2023/05/02 00:13:24;;;;;;;12.97;8.40;;;;;;;;;;5068030;28;20422;-84
2023/05/02 00:15:51;;;;;;;12.07;7.80;;;;;;;;;;5045597;28;20475;-82
2023/05/02 00:18:25;;;;;;;13.07;8.50;;;;;;;;;;5090210;28;20476;-84
2023/05/02 00:20:51;;;;;;;13.30;8.80;;;;;;;;;;5073502;28;20990;-83
2023/05/02 00:23:22;;;;;;;14.70;9.70;;;;;;;;;;5090121;28;20424;-84
2023/05/02 00:25:50;;;;;;;13.57;9.80;;;;;;;;;;5090063;28;20501;-86
2023/05/02 00:28:19;;;;;;;16.67;9.90;;;;;;;;;;5073080;28;20498;-85
2023/05/02 00:30:46;;;;;;;19.40;11.97;;;;;;;;;;5074203;28;20918;-83
2023/05/02 00:33:25;;;;;;;19.70;11.40;;;;;;;;;;5052241;28;20783;-83
2023/05/02 00:35:52;;;;;;;19.20;12.47;;;;;;;;;;5091696;28;20410;-81
2023/05/02 00:38:18;;;;;;;18.77;11.20;;;;;;;;;;5074100;28;20472;-82
2023/05/02 00:41:04;;;;;;;16.93;12.27;;;;;;;;;;5074784;28;20442;-83
2023/05/02 00:43:30;;;;;;;18.47;12.63;;;;;;;;;;5074420;28;20425;-83
2023/05/02 00:45:56;;;;;;;19.17;12.33;;;;;;;;;;5092591;28;20426;-83
2023/05/02 00:48:24;;;;;;;20.40;13.60;;;;;;;;;;5092699;28;20407;-83
2023/05/02 00:50:53;;;;;;;17.50;11.73;;;;;;;;;;5074559;28;20422;-83
2023/05/02 00:53:19;;;;;;;24.27;14.20;;;;;;;;;;5071720;28;20443;-83
2023/05/02 00:55:45;;;;;;;20.07;12.67;;;;;;;;;;5074250;28;20416;-84
2023/05/02 00:58:13;;;;;;;20.17;13.27;;;;;;;;;;5092325;28;20610;-83
2023/05/02 01:00:58;;;;;;;19.33;13.07;;;;;;;;;;5074306;28;20427;-84
2023/05/02 01:03:43;;;;;;;23.73;13.40;;;;;;;;;;5074118;28;20404;-83
2023/05/02 01:06:15;;;;;;;18.13;12.20;;;;;;;;;;5074448;28;20417;-83
2023/05/02 01:08:55;;;;;;;19.70;13.83;;;;;;;;;;5074046;28;20417;-84
2023/05/02 01:11:29;;;;;;;20.73;13.17;;;;;;;;;;5091428;28;20424;-83
2023/05/02 01:14:03;;;;;;;21.07;12.47;;;;;;;;;;5074301;28;20413;-82
2023/05/02 01:16:29;;;;;;;20.00;13.63;;;;;;;;;;5074476;28;20811;-83
2023/05/02 01:18:56;;;;;;;19.77;11.90;;;;;;;;;;5073835;28;20464;-82
2023/05/02 01:21:23;;;;;;;23.60;14.87;;;;;;;;;;5074251;28;20405;-83
2023/05/02 01:24:01;;;;;;;21.53;12.90;;;;;;;;;;5076334;28;20444;-83
2023/05/02 01:26:45;;;;;;;21.30;13.53;;;;;;;;;;5077583;28;20922;-83
2023/05/02 01:29:13;;;;;;;19.43;12.73;;;;;;;;;;5095360;28;20831;-83
2023/05/02 01:31:41;;;;;;;19.90;13.70;;;;;;;;;;5078022;28;20433;-86
2023/05/02 01:34:09;;;;;;;18.40;12.90;;;;;;;;;;5078227;28;20421;-85
2023/05/02 01:36:37;;;;;;;18.73;11.27;;;;;;;;;;5061294;28;20460;-85
2023/05/02 01:39:21;;;;;;;17.87;11.50;;;;;;;;;;5077888;28;20484;-84
2023/05/02 01:41:59;;;;;;;20.07;12.93;;;;;;;;;;5096878;28;20402;-87
2023/05/02 01:44:48;;;;;;;16.97;11.13;;;;;;;;;;5096296;28;20966;-85
2023/05/02 01:47:35;;;;;;;17.20;10.87;;;;;;;;;;5095440;28;20816;-84
2023/05/02 01:50:08;;;;;;;16.63;10.40;;;;;;;;;;5077450;28;20463;-84
2023/05/02 01:52:37;;;;;;;15.40;11.30;;;;;;;;;;5095469;28;20407;-83
2023/05/02 01:55:03;;;;;;;16.80;10.67;;;;;;;;;;5074296;28;20429;-84
2023/05/02 01:57:34;;;;;;;17.30;11.50;;;;;;;;;;5077020;28;20555;-83
2023/05/02 02:00:02;;;;;;;11.57;8.23;;;;;;;;;;5077154;28;20425;-82
2023/05/02 02:02:29;;;;;;;11.27;7.73;;;;;;;;;;5049136;28;20439;-83
2023/05/02 02:04:55;;;;;;;12.00;7.70;;;;;;;;;;5076905;28;20423;-82
2023/05/02 02:07:24;;;;;;;13.80;7.10;;;;;;;;;;5076864;28;20417;-84
2023/05/02 02:09:50;;;;;;;11.90;6.90;;;;;;;;;;5076708;28;20438;-83
2023/05/02 02:12:24;;;;;;;10.10;6.93;;;;;;;;;;5076946;28;20458;-85
2023/05/02 02:15:13;;;;;;;10.40;7.47;;;;;;;;;;5076949;28;20423;-84
2023/05/02 02:17:46;;;;;;;8.63;5.60;;;;;;;;;;5083538;28;20520;-84
2023/05/02 02:20:13;;;;;;;7.80;5.23;;;;;;;;;;5076941;28;20422;-84
2023/05/02 02:22:42;;;;;;;12.90;6.97;;;;;;;;;;5077298;28;20418;-83
2023/05/02 02:25:11;;;;;;;13.50;6.60;;;;;;;;;;5076520;28;20422;-84
2023/05/02 02:27:37;;;;;;;12.43;5.93;;;;;;;;;;5076635;28;20425;-82
2023/05/02 02:30:05;;;;;;;12.30;6.60;;;;;;;;;;5076494;28;21101;-82
2023/05/02 02:32:34;;;;;;;10.23;5.30;;;;;;;;;;5076412;28;20515;-83
2023/05/02 02:35:04;;;;;;;9.97;5.00;;;;;;;;;;5075632;28;20426;-83
2023/05/02 02:37:33;;;;;;;11.47;6.97;;;;;;;;;;5094506;28;20468;-83
2023/05/02 02:40:05;;;;;;;9.90;4.90;;;;;;;;;;5072798;28;20831;-82
2023/05/02 02:42:50;;;;;;;7.53;4.90;;;;;;;;;;5073146;28;21002;-83
2023/05/02 02:45:21;;;;;;;8.40;4.60;;;;;;;;;;5073101;28;20413;-86
2023/05/02 02:47:48;;;;;;;10.37;4.70;;;;;;;;;;5073017;28;20424;-83
2023/05/02 02:50:17;;;;;;;8.10;6.17;;;;;;;;;;5072869;28;20416;-84
2023/05/02 02:52:56;;;;;;;11.17;6.37;;;;;;;;;;5073015;28;20421;-84
2023/05/02 02:55:31;;;;;;;12.73;4.90;;;;;;;;;;5073021;28;20941;-83
2023/05/02 02:58:19;;;;;;;5.90;4.27;;;;;;;;;;5072784;28;20483;-84
2023/05/02 03:00:46;;;;;;;7.20;3.93;;;;;;;;;;5072800;28;20431;-85
2023/05/02 03:03:14;;;;;;;8.90;5.17;;;;;;;;;;5074012;28;20439;-85
2023/05/02 03:05:41;;;;;;;5.00;3.40;;;;;;;;;;5072813;28;20423;-83
2023/05/02 03:08:12;;;;;;;5.53;3.00;;;;;;;;;;5072135;28;20478;-84
2023/05/02 03:10:42;;;;;;;6.47;2.90;;;;;;;;;;5072601;28;20787;-83
2023/05/02 03:13:14;;;;;;;3.80;2.37;;;;;;;;;;5072343;28;20477;-84
2023/05/02 03:15:58;;;;;;;5.07;3.43;;;;;;;;;;5072355;28;20752;-83
2023/05/02 03:18:25;;;;;;;6.90;3.97;;;;;;;;;;5072248;28;20474;-83
2023/05/02 03:21:01;;;;;;;7.07;3.83;;;;;;;;;;5072337;28;20516;-83
2023/05/02 03:23:30;;;;;;;8.00;3.20;;;;;;;;;;5067479;28;20451;-83
2023/05/02 03:25:56;;;;;;;6.83;2.90;;;;;;;;;;5072124;28;20410;-84
2023/05/02 03:28:21;;;;;;;7.53;2.20;;;;;;;;;;5072267;28;20433;-86
2023/05/02 03:30:47;;;;;;;10.63;2.00;;;;;;;;;;5031781;28;20489;-85
2023/05/02 03:33:15;;;;;;;3.80;2.60;;;;;;;;;;5072295;28;20475;-84
2023/05/02 03:35:50;;;;;;;8.87;1.83;;;;;;;;;;5072314;28;20929;-87
2023/05/02 03:38:17;;;;;;;5.57;1.97;;;;;;;;;;5072533;28;20482;-86
2023/05/02 03:40:43;;;;;;;5.60;1.23;;;;;;;;;;5059362;28;20462;-84
2023/05/02 03:43:36;;;;;;;9.73;3.30;;;;;;;;;;5091604;28;20429;-84
2023/05/02 03:46:21;;;;;;;6.40;1.53;;;;;;;;;;5092425;28;20837;-85
2023/05/02 03:48:51;;;;;;;8.03;2.13;;;;;;;;;;5075478;28;20484;-84
2023/05/02 03:51:20;;;;;;;11.77;2.43;;;;;;;;;;5059546;28;20436;-86
2023/05/02 03:53:47;;;;;;;8.07;1.90;;;;;;;;;;5075138;28;20410;-86
2023/05/02 03:56:19;;;;;;;6.67;1.67;;;;;;;;;;5076104;28;20414;-84
2023/05/02 03:58:45;;;;;;;12.20;2.37;;;;;;;;;;5093618;28;20436;-85
2023/05/02 04:01:16;;;;;;;9.93;2.97;;;;;;;;;;5075191;28;20412;-83
2023/05/02 04:03:43;;;;;;;14.80;4.23;;;;;;;;;;5075136;28;20493;-84
2023/05/02 04:06:15;;;;;;;7.47;2.77;;;;;;;;;;5075353;28;20893;-85
2023/05/02 04:08:42;;;;;;;6.07;1.30;;;;;;;;;;5075352;28;20414;-83
2023/05/02 04:11:09;;;;;;;9.00;2.07;;;;;;;;;;5075117;28;20414;-83
2023/05/02 04:13:37;;;;;;;14.83;5.10;;;;;;;;;;5092321;28;20466;-84
2023/05/02 04:16:09;;;;;;;5.60;1.53;;;;;;;;;;5075194;28;20449;-85
2023/05/02 04:18:37;;;;;;;9.70;2.10;;;;;;;;;;5074906;28;20469;-84
2023/05/02 04:21:04;;;;;;;10.43;2.40;;;;;;;;;;5075069;28;20423;-84
2023/05/02 04:23:30;;;;;;;12.57;3.60;;;;;;;;;;5074442;28;20421;-85
2023/05/02 04:25:56;;;;;;;7.97;2.73;;;;;;;;;;5092969;28;20420;-84
2023/05/02 04:28:23;;;;;;;12.33;3.77;;;;;;;;;;5074868;28;20914;-85
2023/05/02 04:30:56;;;;;;;10.73;2.47;;;;;;;;;;5074886;28;20433;-82
2023/05/02 04:33:23;;;;;;;7.87;2.27;;;;;;;;;;5074924;28;20422;-84
2023/05/02 04:35:49;;;;;;;8.97;2.40;;;;;;;;;;5074674;28;20470;-84
2023/05/02 04:38:16;;;;;;;6.70;1.60;;;;;;;;;;5074300;28;20481;-83
2023/05/02 04:40:42;;;;;;;9.20;2.23;;;;;;;;;;5074536;28;20427;-84
2023/05/02 04:43:08;;;;;;;8.30;2.77;;;;;;;;;;5074884;28;20783;-84
2023/05/02 04:45:35;;;;;;;10.20;2.20;;;;;;;;;;5057921;28;20945;-84
2023/05/02 04:48:02;;;;;;;11.83;2.20;;;;;;;;;;5074578;28;20922;-84
2023/05/02 04:50:37;;;;;;;16.60;5.27;;;;;;;;;;5058557;28;20419;-86
2023/05/02 04:53:08;;;;;;;11.20;2.63;;;;;;;;;;5092040;28;20520;-84
2023/05/02 04:55:45;;;;;;;5.70;1.80;;;;;;;;;;5092729;28;20458;-84
2023/05/02 04:58:15;;;;;;;5.30;1.70;;;;;;;;;;5057604;28;21184;-83
2023/05/02 05:00:53;;;;;;;10.40;2.20;;;;;;;;;;5078437;28;20424;-84
2023/05/02 05:03:19;;;;;;;8.40;1.50;;;;;;;;;;5078264;28;20423;-82
2023/05/02 05:05:46;;;;;;;15.57;3.17;;;;;;;;;;5096459;28;20774;-84
2023/05/02 05:08:12;;;;;;;13.60;2.77;;;;;;;;;;5077684;28;20420;-84
2023/05/02 05:10:39;;;;;;;9.93;2.30;;;;;;;;;;5096027;28;20410;-83
2023/05/02 05:13:08;;;;;;;9.33;1.57;;;;;;;;;;5095998;28;20450;-83
2023/05/02 05:15:39;;;;;;;11.90;2.20;;;;;;;;;;5077796;28;20440;-83
2023/05/02 05:18:05;;;;;;;12.03;3.07;;;;;;;;;;5077811;28;20523;-82
2023/05/02 05:20:32;;;;;;;4.50;1.47;;;;;;;;;;5095508;28;20571;-83
2023/05/02 05:22:58;;;;;;;7.03;2.27;;;;;;;;;;5084153;28;20422;-82
2023/05/02 05:25:29;;;;;;;6.13;2.60;;;;;;;;;;5067259;28;20410;-82
2023/05/02 05:27:55;;;;;;;7.20;1.83;;;;;;;;;;5095485;28;20421;-83
2023/05/02 05:30:22;;;;;;;9.07;2.40;;;;;;;;;;5077627;28;20470;-80
2023/05/02 05:32:48;;;;;;;8.43;2.60;;;;;;;;;;5095793;28;20815;-83
2023/05/02 05:35:14;;;;;;;5.30;1.83;;;;;;;;;;5077471;28;20978;-83
2023/05/02 05:37:42;;;;;;;9.40;2.50;;;;;;;;;;5077173;28;20505;-87
2023/05/02 05:40:10;;;;;;;6.83;1.37;;;;;;;;;;5095012;28;20552;-84
2023/05/02 05:42:36;;;;;;;10.10;2.60;;;;;;;;;;5077451;28;20453;-85
2023/05/02 05:45:05;;;;;;;11.30;2.13;;;;;;;;;;5077407;28;20460;-84
2023/05/02 05:47:31;;;;;;;9.37;1.57;;;;;;;;;;5076905;28;20448;-85
2023/05/02 05:49:58;;;;;;;8.33;1.80;;;;;;;;;;5095498;28;20893;-84
2023/05/02 05:52:25;;;;;;;10.97;2.37;;;;;;;;;;5060156;28;20458;-83
2023/05/02 05:55:00;;;;;;;9.97;2.00;;;;;;;;;;5077133;28;20814;-84
2023/05/02 05:57:26;;;;;;;7.30;1.23;;;;;;;;;;5061084;28;20522;-82
2023/05/02 05:59:52;;;;;;;9.47;2.00;;;;;;;;;;5077066;28;20428;-83
2023/05/02 06:02:18;;;;;;;2.73;1.20;;;;;;;;;;5076882;28;20425;-85
2023/05/02 06:04:45;;;;;;;8.03;2.37;;;;;;;;;;5077118;28;20417;-84
2023/05/02 06:07:15;;;;;;;9.10;1.90;;;;;;;;;;5095032;28;20490;-81
2023/05/02 06:09:45;;;;;;;9.23;2.00;;;;;;;;;;5076121;28;20429;-82
2023/05/02 06:12:15;;;;;;;7.23;1.00;;;;;;;;;;5094953;28;20410;-84
2023/05/02 06:14:47;;;;;;;6.50;2.00;;;;;;;;;;5094904;28;20912;-84
2023/05/02 06:17:17;;;;;;;8.07;1.10;;;;;;;;;;5060885;28;20478;-82
2023/05/02 06:19:45;;;;;;;7.63;2.80;;;;;;;;;;5076626;28;20563;-83
2023/05/02 06:22:12;;;;;;;4.10;2.20;;;;;;;;;;5093691;28;20422;-83
2023/05/02 06:24:39;;;;;;;13.80;2.20;;;;;;;;;;5094772;28;20417;-83
2023/05/02 06:27:06;;;;;;;10.63;1.90;;;;;;;;;;5076592;28;20414;-83
2023/05/02 06:29:32;;;;;;;6.27;1.40;;;;;;;;;;5060055;28;20417;-85
2023/05/02 06:31:58;;;;;;;8.97;1.37;;;;;;;;;;5076534;28;20425;-84
2023/05/02 06:34:24;;;;;;;6.80;1.50;;;;;;;;;;5094532;28;20424;-84
2023/05/02 06:36:54;;;;;;;6.77;1.60;;;;;;;;;;5075966;28;20859;-86
2023/05/02 06:39:20;;;;;;;7.57;2.63;;;;;;;;;;5075814;28;20473;-80
2023/05/02 06:41:47;;;;;;;7.57;1.50;;;;;;;;;;5076395;28;20481;-82
2023/05/02 06:44:13;;;;;;;6.40;2.67;;;;;;;;;;5094341;28;20416;-83
2023/05/02 06:46:39;;;;;;;4.20;1.60;;;;;;;;;;5059719;28;20463;-83
2023/05/02 06:49:09;;;;;;;4.73;2.13;;;;;;;;;;5093471;28;20426;-83
2023/05/02 06:51:35;;;;;;;10.53;2.97;;;;;;;;;;5031491;28;21019;-82
2023/05/02 06:54:01;;;;;;;3.37;1.60;;;;;;;;;;5093709;28;20425;-82
2023/05/02 06:56:27;;;;;;;8.03;1.80;;;;;;;;;;5093846;28;20408;-83
2023/05/02 06:58:53;;;;;;;8.53;2.73;;;;;;;;;;5094077;28;20425;-81
2023/05/02 07:01:21;;;;;;;4.23;1.53;;;;;;;;;;5094183;28;20417;-83
2023/05/02 07:03:47;;;;;;;2.93;1.30;;;;;;;;;;5086793;28;20490;-83
2023/05/02 07:06:14;;;;;;;9.10;2.47;;;;;;;;;;5057549;28;20471;-81
2023/05/02 07:08:43;;;;;;;3.60;1.00;;;;;;;;;;5093561;28;20771;-83
2023/05/02 07:11:09;;;;;;;6.50;1.73;;;;;;;;;;5093871;28;20402;-83
2023/05/02 07:13:36;;;;;;;4.33;2.10;;;;;;;;;;5075357;28;20416;-84
2023/05/02 07:16:02;;;;;;;7.73;2.10;;;;;;;;;;5075296;28;20425;-82
2023/05/02 07:18:28;;;;;;;5.83;1.80;;;;;;;;;;5093624;28;20480;-83
2023/05/02 07:20:55;;;;;;;6.27;1.63;;;;;;;;;;5092750;28;20413;-84
2023/05/02 07:23:21;;;;;;;8.43;2.10;;;;;;;;;;5093363;28;20903;-81
2023/05/02 07:25:47;;;;;;;4.07;1.67;;;;;;;;;;5093751;28;20415;-82
2023/05/02 07:28:13;;;;;;;5.73;2.40;;;;;;;;;;5075233;28;20422;-80
2023/05/02 07:30:39;;;;;;;8.30;1.47;;;;;;;;;;5093539;28;20399;-82
2023/05/02 07:33:05;;;;;;;9.40;1.93;;;;;;;;;;5075364;28;20472;-85
2023/05/02 07:35:32;;;;;;;3.93;1.30;;;;;;;;;;5075243;28;20403;-84
2023/05/02 07:37:58;;;;;;;4.53;1.30;;;;;;;;;;5075051;28;20503;-83
2023/05/02 07:40:27;;;;;;;3.83;1.43;;;;;;;;;;5074959;28;20949;-82
2023/05/02 07:42:53;;;;;;;5.30;1.17;;;;;;;;;;5075088;28;20437;-83
2023/05/02 07:45:22;;;;;;;5.13;1.73;;;;;;;;;;5075119;28;20390;-84
2023/05/02 07:47:48;;;;;;;7.40;2.47;;;;;;;;;;5075222;28;20412;-83
2023/05/02 07:50:13;;;;;;;4.60;1.43;;;;;;;;;;5075178;28;20404;-84
2023/05/02 07:52:39;;;;;;;2.77;1.30;;;;;;;;;;5033512;28;20438;-82
2023/05/02 07:55:06;;;;;;;2.43;0.80;;;;;;;;;;5075120;28;20942;-83
2023/05/02 07:57:32;;;;;;;4.37;1.57;;;;;;;;;;5093011;28;20472;-83
2023/05/02 07:59:58;;;;;;;5.17;1.00;;;;;;;;;;5074772;28;20444;-84
2023/05/02 08:02:24;;;;;;;2.27;0.53;;;;;;;;;;5076839;28;20966;-80
2023/05/02 08:04:50;;;;;;;6.60;1.60;;;;;;;;;;5065490;28;20431;-82
2023/05/02 08:07:16;;;;;;;5.90;0.93;;;;;;;;;;5057165;28;20506;-82
2023/05/02 08:09:42;;;;;;;2.90;1.53;;;;;;;;;;5072840;28;20416;-81
2023/05/02 08:12:08;;;;;;;6.87;0.80;;;;;;;;;;5058235;28;20908;-81
2023/05/02 08:14:34;;;;;;;1.30;0.50;;;;;;;;;;5078733;28;20424;-80
2023/05/02 08:17:00;;;;;;;5.00;0.93;;;;;;;;;;5054776;28;20512;-81
2023/05/02 08:19:26;;;;;;;1.80;0.93;;;;;;;;;;5054740;28;20421;-81
2023/05/02 08:21:55;;;;;;;3.73;0.73;;;;;;;;;;5054274;28;20425;-81
2023/05/02 08:24:22;;;;;;;4.83;0.93;;;;;;;;;;5057014;28;20952;-82
2023/05/02 08:26:47;;;;;;;3.67;1.43;;;;;;;;;;5064810;28;20459;-81
2023/05/02 08:29:14;;;;;;;2.40;1.40;;;;;;;;;;5072789;28;20495;-80
2023/05/02 08:31:40;;;;;;;2.00;0.97;;;;;;;;;;5073724;28;20860;-83
2023/05/02 08:34:06;;;;;;;3.87;0.77;;;;;;;;;;5076735;28;20924;-83
2023/05/02 08:36:36;;;;;;;3.23;0.60;;;;;;;;;;5058467;28;20405;-85
2023/05/02 08:39:02;;;;;;;7.77;1.47;;;;;;;;;;5058106;28;20468;-82
2023/05/02 08:41:30;;;;;;;3.60;0.67;;;;;;;;;;5076546;28;20423;-82
2023/05/02 08:43:56;;;;;;;4.40;1.03;;;;;;;;;;5059158;28;20425;-81
2023/05/02 08:46:22;;;;;;;2.23;0.40;;;;;;;;;;5058411;28;20417;-82
2023/05/02 08:48:49;;;;;;;5.87;0.90;;;;;;;;;;5076404;28;20438;-82
2023/05/02 08:51:16;;;;;;;1.80;0.70;;;;;;;;;;5058266;28;20443;-83
2023/05/02 08:53:48;;;;;;;3.47;0.80;;;;;;;;;;5057969;28;20439;-82
2023/05/02 08:56:15;;;;;;;5.20;0.57;;;;;;;;;;5058153;28;20410;-81
2023/05/02 08:58:41;;;;;;;5.30;0.70;;;;;;;;;;5016817;28;20838;-81
2023/05/02 09:01:13;;;;;;;8.10;1.10;;;;;;;;;;5076082;28;20416;-83
2023/05/02 09:03:40;;;;;;;1.63;0.40;;;;;;;;;;5076197;28;20935;-82
2023/05/02 09:06:13;;;;;;;7.20;1.60;;;;;;;;;;5076167;28;20409;-81
2023/05/02 09:08:39;;;;;;;4.80;1.10;;;;;;;;;;5075741;28;20413;-80
2023/05/02 09:11:05;;;;;;;3.53;1.10;;;;;;;;;;5075863;28;20459;-82
2023/05/02 09:13:35;;;;;;;5.60;1.20;;;;;;;;;;5075839;28;20411;-82
2023/05/02 09:16:01;;;;;;;5.27;0.90;;;;;;;;;;5075870;28;20480;-82
2023/05/02 09:18:30;;;;;;;1.50;1.23;;;;;;;;;;5075857;28;20469;-83
2023/05/02 09:21:00;;;;;;;4.93;0.80;;;;;;;;;;5057632;28;20411;-82
2023/05/02 09:23:36;;;;;;;4.80;1.73;;;;;;;;;;5075402;28;20461;-82
2023/05/02 09:26:10;;;;;;;8.90;0.90;;;;;;;;;;5075694;28;20396;-82
2023/05/02 09:28:41;;;;;;;2.33;0.90;;;;;;;;;;5057646;28;20404;-82
2023/05/02 09:31:08;;;;;;;6.13;1.47;;;;;;;;;;5075605;28;20521;-81
2023/05/02 09:33:34;;;;;;;5.90;1.37;;;;;;;;;;5075640;28;20410;-81
2023/05/02 09:36:00;;;;;;;2.37;1.40;;;;;;;;;;5075510;28;20416;-81
2023/05/02 09:38:26;;;;;;;7.03;1.30;;;;;;;;;;5057122;28;20479;-80
2023/05/02 09:40:54;;;;;;;7.97;1.67;;;;;;;;;;5075237;28;20454;-82
2023/05/02 09:43:20;;;;;;;3.40;0.90;;;;;;;;;;5056433;28;20461;-81
2023/05/02 09:45:56;;;;;;;1.60;0.30;;;;;;;;;;5075368;28;20425;-81
2023/05/02 09:48:21;;;;;;;5.03;1.43;;;;;;;;;;5075304;28;20410;-81
2023/05/02 09:50:47;;;;;;;1.47;0.40;;;;;;;;;;5075214;28;20411;-82
2023/05/02 09:53:13;;;;;;;1.07;0.40;;;;;;;;;;5074887;28;20544;-81
2023/05/02 09:55:39;;;;;;;1.27;0.30;;;;;;;;;;5075186;28;20180;-82
2023/05/02 09:58:09;;;;;;;1.73;0.83;;;;;;;;;;5057152;28;20217;-80
2023/05/02 10:00:44;;;;;;;1.77;0.73;;;;;;;;;;5075106;28;20414;-81
2023/05/02 10:03:11;;;;;;;3.07;0.40;;;;;;;;;;5056935;28;20423;-80
2023/05/02 10:05:38;;;;;;;1.77;0.50;;;;;;;;;;5075041;28;20410;-81
2023/05/02 10:08:07;;;;;;;1.30;0.57;;;;;;;;;;5074667;28;20406;-81
2023/05/02 10:10:36;;;;;;;2.47;0.70;;;;;;;;;;5074916;28;20418;-82
2023/05/02 10:13:03;;;;;;;2.20;0.30;;;;;;;;;;5074830;28;20409;-82
2023/05/02 10:15:30;;;;;;;2.77;0.67;;;;;;;;;;5074895;28;20448;-82
2023/05/02 10:17:58;;;;;;;3.13;0.70;;;;;;;;;;5074428;28;20859;-82
2023/05/02 10:20:28;;;;;;;3.30;0.40;;;;;;;;;;5074752;28;20411;-81
2023/05/02 10:22:54;;;;;;;2.13;0.40;;;;;;;;;;5074250;28;20914;-81
2023/05/02 10:25:20;;;;;;;1.30;0.50;;;;;;;;;;5074579;28;20403;-82
2023/05/02 10:27:49;;;;;;;1.00;0.43;;;;;;;;;;5074652;28;20411;-81
2023/05/02 10:30:15;;;;;;;2.97;0.50;;;;;;;;;;5074424;28;20407;-80
2023/05/02 10:32:43;;;;;;;2.33;0.53;;;;;;;;;;5074439;28;20412;-82
2023/05/02 10:35:09;;;;;;;2.50;0.50;;;;;;;;;;5074410;28;20903;-81
2023/05/02 10:37:36;;;;;;;2.00;0.50;;;;;;;;;;5073867;28;20474;-81
2023/05/02 10:40:02;;;;;;;1.03;0.30;;;;;;;;;;5074061;28;20458;-81
2023/05/02 10:42:29;;;;;;;1.13;0.40;;;;;;;;;;5073991;28;20420;-82
2023/05/02 10:44:56;;;;;;;3.33;0.80;;;;;;;;;;5074059;28;20431;-82
2023/05/02 10:47:23;;;;;;;4.20;0.87;;;;;;;;;;5056116;28;20463;-81
2023/05/02 10:49:53;;;;;;;2.13;0.60;;;;;;;;;;5074025;28;20421;-81
2023/05/02 10:52:27;;;;;;;2.57;0.70;;;;;;;;;;5073619;28;20522;-81
2023/05/02 10:55:13;;;;;;;5.67;1.00;;;;;;;;;;5045468;28;20468;-82
2023/05/02 10:58:02;;;;;;;2.70;0.80;;;;;;;;;;5094182;28;20508;-82
2023/05/02 11:00:29;;;;;;;2.90;0.80;;;;;;;;;;5093425;28;20408;-81
2023/05/02 11:02:55;;;;;;;4.53;1.00;;;;;;;;;;5094076;28;20408;-81
2023/05/02 11:05:21;;;;;;;2.60;1.00;;;;;;;;;;5094118;28;20407;-81
2023/05/02 11:07:47;;;;;;;2.43;0.60;;;;;;;;;;5075244;28;20771;-81
2023/05/02 11:10:16;;;;;;;1.77;0.43;;;;;;;;;;5075648;28;20395;-82
2023/05/02 11:12:45;;;;;;;3.63;0.70;;;;;;;;;;5075877;28;20454;-82
2023/05/02 11:15:11;;;;;;;6.10;0.60;;;;;;;;;;5093754;28;20409;-82
2023/05/02 11:17:55;;;;;;;3.60;0.70;;;;;;;;;;5075609;28;20475;-82
2023/05/02 11:20:22;;;;;;;3.73;0.80;;;;;;;;;;5093701;28;20395;-81
2023/05/02 11:22:49;;;;;;;1.90;0.63;;;;;;;;;;5075158;28;20472;-82
2023/05/02 11:25:34;;;;;;;1.90;0.93;;;;;;;;;;5075513;28;20423;-81
2023/05/02 11:28:00;;;;;;;5.73;0.80;;;;;;;;;;5093656;28;20416;-81
2023/05/02 11:30:39;;;;;;;1.53;0.40;;;;;;;;;;5093609;28;20406;-82
2023/05/02 11:33:08;;;;;;;2.20;0.20;;;;;;;;;;5075220;28;20457;-82
2023/05/02 11:35:35;;;;;;;1.90;0.60;;;;;;;;;;5075333;28;20416;-81
2023/05/02 11:38:08;;;;;;;3.07;0.50;;;;;;;;;;5074722;28;21050;-81
2023/05/02 11:40:35;;;;;;;1.83;0.43;;;;;;;;;;5075164;28;20815;-82
2023/05/02 11:43:00;;;;;;;3.17;0.83;;;;;;;;;;5093134;28;20779;-81
2023/05/02 11:45:36;;;;;;;3.27;0.30;;;;;;;;;;5093391;28;20464;-82
2023/05/02 11:48:03;;;;;;;2.50;0.43;;;;;;;;;;5093227;28;20769;-81
2023/05/02 11:50:29;;;;;;;1.33;0.40;;;;;;;;;;5093160;28;20408;-81
2023/05/02 11:52:56;;;;;;;3.40;0.40;;;;;;;;;;5092568;28;20421;-82
2023/05/02 11:55:22;;;;;;;1.50;0.70;;;;;;;;;;5093030;28;20407;-81
2023/05/02 11:57:48;;;;;;;5.60;1.03;;;;;;;;;;5075737;28;20482;-82
2023/05/02 12:00:14;;;;;;;2.80;0.37;;;;;;;;;;5052522;28;20423;-82
2023/05/02 12:02:43;;;;;;;4.63;0.50;;;;;;;;;;5093123;28;20410;-81
2023/05/02 12:05:10;;;;;;;2.00;0.57;;;;;;;;;;5092941;28;20419;-82
2023/05/02 12:07:39;;;;;;;8.83;1.60;;;;;;;;;;5091938;28;20421;-81
2023/05/02 12:10:06;;;;;;;1.90;0.63;;;;;;;;;;5092964;28;20409;-81
2023/05/02 12:12:32;;;;;;;5.93;0.63;;;;;;;;;;5092890;28;20493;-82
2023/05/02 12:14:58;;;;;;;1.33;0.47;;;;;;;;;;5092908;28;20405;-81
2023/05/02 12:17:24;;;;;;;3.00;1.00;;;;;;;;;;5092786;28;20459;-81
2023/05/02 12:19:50;;;;;;;3.30;0.53;;;;;;;;;;5092819;28;20413;-81
2023/05/02 12:22:17;;;;;;;1.00;0.30;;;;;;;;;;5092535;28;20407;-82
2023/05/02 12:24:45;;;;;;;1.33;0.40;;;;;;;;;;5074714;28;20478;-83
2023/05/02 12:27:12;;;;;;;3.03;0.30;;;;;;;;;;5092831;28;20420;-83
2023/05/02 12:29:42;;;;;;;2.63;0.40;;;;;;;;;;5092760;28;20455;-82
2023/05/02 12:32:13;;;;;;;3.27;0.40;;;;;;;;;;5092911;28;20399;-86
2023/05/02 12:34:45;;;;;;;2.10;0.30;;;;;;;;;;5092940;28;20402;-83
2023/05/02 12:37:11;;;;;;;1.67;0.37;;;;;;;;;;5092351;28;20454;-84
2023/05/02 12:39:38;;;;;;;2.90;0.33;;;;;;;;;;5071144;28;20496;-80
2023/05/02 12:42:13;;;;;;;3.63;0.40;;;;;;;;;;5072570;28;20747;-84
2023/05/02 12:44:40;;;;;;;1.53;0.20;;;;;;;;;;5071219;28;20421;-81
2023/05/02 12:47:09;;;;;;;1.80;0.47;;;;;;;;;;5054464;28;20425;-82
2023/05/02 12:49:52;;;;;;;3.73;0.70;;;;;;;;;;5072277;28;20402;-80
2023/05/02 12:52:41;;;;;;;1.83;0.77;;;;;;;;;;5070899;28;20408;-84
2023/05/02 12:55:20;;;;;;;4.83;0.50;;;;;;;;;;5070922;28;20404;-80
2023/05/02 12:57:46;;;;;;;4.83;0.50;;;;;;;;;;5070560;28;20460;-82
2023/05/02 13:00:13;;;;;;;1.50;0.30;;;;;;;;;;5072370;28;20479;-81
2023/05/02 13:02:39;;;;;;;2.83;0.60;;;;;;;;;;5072351;28;20409;-81
2023/05/02 13:05:15;;;;;;;4.60;0.50;;;;;;;;;;5071040;28;20896;-81
2023/05/02 13:07:41;;;;;;;1.47;0.73;;;;;;;;;;5068572;28;20189;-81
2023/05/02 13:10:11;;;;;;;3.60;0.60;;;;;;;;;;5070814;28;20415;-80
2023/05/02 13:12:37;;;;;;;4.73;1.27;;;;;;;;;;5069877;28;20423;-81
2023/05/02 13:15:03;;;;;;;1.70;0.40;;;;;;;;;;5071202;28;20409;-79
2023/05/02 13:17:33;;;;;;;3.20;0.67;;;;;;;;;;5070941;28;21011;-77
2023/05/02 13:19:59;;;;;;;3.27;0.67;;;;;;;;;;5033875;28;20529;-78
2023/05/02 13:22:25;;;;;;;4.37;0.50;;;;;;;;;;5075460;28;20933;-78
2023/05/02 13:24:54;;;;;;;1.80;0.40;;;;;;;;;;5075823;28;20411;-78
2023/05/02 13:27:22;;;;;;;3.00;0.90;;;;;;;;;;5074195;28;20430;-78
2023/05/02 13:29:49;;;;;;;2.00;0.60;;;;;;;;;;5075573;28;20415;-79
2023/05/02 13:32:15;;;;;;;2.83;0.50;;;;;;;;;;5075596;28;20415;-79
2023/05/02 13:34:41;;;;;;;4.33;0.97;;;;;;;;;;5072947;28;20427;-79
2023/05/02 13:37:07;;;;;;;5.13;0.77;;;;;;;;;;5074246;28;20526;-78
2023/05/02 13:39:33;;;;;;;3.23;0.23;;;;;;;;;;5081639;28;20469;-77
2023/05/02 13:42:00;;;;;;;2.47;0.47;;;;;;;;;;5077566;28;20505;-78
2023/05/02 13:44:26;;;;;;;4.87;0.30;;;;;;;;;;5077301;28;20935;-78
2023/05/02 13:46:52;;;;;;;2.40;0.50;;;;;;;;;;5077194;28;20415;-78
2023/05/02 13:49:18;;;;;;;2.10;0.40;;;;;;;;;;5077383;28;20419;-77
2023/05/02 13:51:44;;;;;;;1.67;0.40;;;;;;;;;;5095117;28;20398;-77
2023/05/02 13:54:11;;;;;;;2.50;0.83;;;;;;;;;;5077284;28;20417;-78
2023/05/02 13:56:38;;;;;;;1.87;0.60;;;;;;;;;;5095252;28;20990;-78
2023/05/02 13:59:04;;;;;;;1.53;0.40;;;;;;;;;;5076847;28;20480;-78
2023/05/02 14:01:30;;;;;;;2.23;0.60;;;;;;;;;;5095205;28;20413;-79
2023/05/02 14:03:56;;;;;;;2.57;1.27;;;;;;;;;;5093216;28;20460;-79
2023/05/02 14:06:22;;;;;;;3.03;0.80;;;;;;;;;;5076522;28;20504;-79
2023/05/02 14:08:50;;;;;;;4.07;1.07;;;;;;;;;;5093933;28;20415;-79
2023/05/02 14:11:16;;;;;;;2.60;0.67;;;;;;;;;;5076301;28;20965;-78
2023/05/02 14:13:42;;;;;;;3.83;0.60;;;;;;;;;;5076836;28;20410;-78
2023/05/02 14:16:08;;;;;;;2.17;0.87;;;;;;;;;;5094951;28;20423;-79
2023/05/02 14:18:33;;;;;;;2.13;1.10;;;;;;;;;;5076478;28;20484;-79
2023/05/02 14:21:00;;;;;;;3.10;0.67;;;;;;;;;;5093819;28;20805;-78
2023/05/02 14:23:29;;;;;;;4.67;0.57;;;;;;;;;;5094104;28;20506;-79
2023/05/02 14:25:55;;;;;;;2.60;0.63;;;;;;;;;;5094640;28;20416;-78
2023/05/02 14:28:21;;;;;;;3.43;1.20;;;;;;;;;;5094741;28;20441;-78
2023/05/02 14:30:50;;;;;;;2.20;1.07;;;;;;;;;;5049837;28;20473;-78
2023/05/02 14:33:16;;;;;;;3.93;0.77;;;;;;;;;;5083880;28;20777;-78
2023/05/02 14:35:42;;;;;;;2.30;0.60;;;;;;;;;;5078954;28;20797;-78
2023/05/02 14:38:08;;;;;;;2.13;0.40;;;;;;;;;;5084366;28;20872;-78
2023/05/02 14:40:34;;;;;;;2.03;0.50;;;;;;;;;;5059047;28;20827;-78
2023/05/02 14:43:00;;;;;;;1.03;0.97;;;;;;;;;;5073969;28;20436;-78
2023/05/02 14:45:26;;;;;;;3.37;0.50;;;;;;;;;;5074188;28;20404;-78
2023/05/02 14:47:52;;;;;;;4.70;0.43;;;;;;;;;;5074079;28;20501;-78